createdAt,value
2019-01-23T00:01:32.156Z,24.33
2019-01-23T00:04:01.612Z,23.77
2019-01-23T00:06:31.070Z,23.27
2019-01-23T00:09:00.474Z,24.37
2019-01-23T00:11:30.069Z,24.80
2019-01-23T00:13:59.522Z,24.30
2019-01-23T00:16:28.963Z,24.73
2019-01-23T00:18:58.397Z,24.23
2019-01-23T00:21:27.901Z,24.07
2019-01-23T00:23:57.341Z,24.87
2019-01-23T00:26:26.771Z,23.83
2019-01-23T00:28:56.255Z,24.93
2019-01-23T00:31:25.743Z,23.73
2019-01-23T00:33:55.178Z,25.60
2019-01-23T00:36:24.634Z,24.97
2019-01-23T00:38:54.020Z,24.47
2019-01-23T00:41:23.453Z,24.37
2019-01-23T00:43:52.910Z,24.23
2019-01-23T00:46:22.342Z,23.90
2019-01-23T00:48:51.818Z,24.47
2019-01-23T00:51:21.220Z,25.10
2019-01-23T00:53:50.662Z,24.43
2019-01-23T00:56:20.126Z,25.07
2019-01-23T00:58:49.551Z,25.20
2019-01-23T01:01:18.907Z,25.17
2019-01-23T01:03:48.329Z,23.47
2019-01-23T01:06:17.797Z,25.50
2019-01-23T01:08:47.253Z,23.70
2019-01-23T01:11:16.699Z,25.10
2019-01-23T01:13:46.057Z,25.23
2019-01-23T01:16:15.540Z,24.60
2019-01-23T01:18:44.910Z,26.77
2019-01-23T01:21:14.318Z,25.13
2019-01-23T01:23:43.789Z,24.43
2019-01-23T01:26:13.149Z,26.47
2019-01-23T01:28:42.620Z,24.87
2019-01-23T01:31:12.129Z,26.30
2019-01-23T01:33:41.514Z,25.57
2019-01-23T01:36:10.943Z,27.07
2019-01-23T01:38:40.883Z,25.80
2019-01-23T01:41:10.338Z,26.70
2019-01-23T01:43:39.761Z,26.50
2019-01-23T01:46:09.168Z,25.53
2019-01-23T01:48:38.601Z,26.30
2019-01-23T01:51:08.053Z,25.47
2019-01-23T01:53:37.514Z,25.07
2019-01-23T01:56:06.947Z,25.53
2019-01-23T01:58:36.430Z,25.17
2019-01-23T02:01:05.970Z,25.67
2019-01-23T02:03:35.414Z,26.73
2019-01-23T02:06:05.214Z,26.40
2019-01-23T02:08:34.744Z,26.07
2019-01-23T02:11:04.202Z,26.33
2019-01-23T02:13:33.602Z,26.73
2019-01-23T02:16:03.062Z,27.43
2019-01-23T02:18:32.517Z,26.30
2019-01-23T02:21:01.966Z,26.83
2019-01-23T02:23:31.406Z,27.90
2019-01-23T02:26:00.897Z,26.40
2019-01-23T02:28:30.311Z,27.90
2019-01-23T02:30:59.773Z,26.87
2019-01-23T02:33:29.212Z,28.13
2019-01-23T02:35:58.616Z,27.47
2019-01-23T02:38:27.949Z,27.27
2019-01-23T02:40:57.352Z,27.67
2019-01-23T02:43:26.776Z,28.00
2019-01-23T02:45:56.220Z,27.93
2019-01-23T02:48:25.643Z,27.27
2019-01-23T02:50:55.039Z,27.93
2019-01-23T02:53:24.550Z,27.60
2019-01-23T02:55:53.948Z,28.67
2019-01-23T02:58:23.367Z,27.23
2019-01-23T03:00:52.888Z,27.20
2019-01-23T03:03:22.252Z,26.47
2019-01-23T03:05:51.680Z,26.50
2019-01-23T03:08:21.092Z,26.67
2019-01-23T03:10:50.506Z,26.20
2019-01-23T03:13:19.974Z,27.77
2019-01-23T03:15:49.395Z,27.43
2019-01-23T03:18:18.816Z,27.20
2019-01-23T03:20:48.240Z,28.20
2019-01-23T03:23:17.681Z,27.83
2019-01-23T03:25:47.202Z,25.97
2019-01-23T03:28:16.641Z,27.83
2019-01-23T03:30:46.095Z,25.97
2019-01-23T03:33:15.542Z,26.67
2019-01-23T03:35:45.000Z,27.33
2019-01-23T03:38:14.420Z,27.57
2019-01-23T03:40:43.819Z,26.77
2019-01-23T03:43:13.268Z,27.90
2019-01-23T03:45:42.702Z,26.90
2019-01-23T03:48:12.160Z,27.10
2019-01-23T03:50:41.530Z,27.47
2019-01-23T03:53:10.976Z,28.33
2019-01-23T03:55:40.430Z,25.57
2019-01-23T03:58:09.869Z,27.20
2019-01-23T04:00:39.324Z,27.03
2019-01-23T04:03:08.780Z,27.00
2019-01-23T04:05:38.215Z,25.43
2019-01-23T04:08:07.565Z,26.60
2019-01-23T04:10:36.978Z,26.57
2019-01-23T04:13:09.598Z,25.63
2019-01-23T04:15:39.043Z,27.00
2019-01-23T04:18:08.970Z,26.13
2019-01-23T04:20:38.372Z,26.03
2019-01-23T04:23:07.787Z,27.77
2019-01-23T04:25:37.170Z,26.13
2019-01-23T04:28:06.483Z,26.20
2019-01-23T04:30:35.931Z,26.90
2019-01-23T04:33:05.357Z,28.07
2019-01-23T04:35:37.727Z,27.73
2019-01-23T04:38:07.103Z,28.27
2019-01-23T04:40:36.512Z,27.13
2019-01-23T04:43:06.295Z,27.17
2019-01-23T04:45:35.749Z,26.50
2019-01-23T04:48:05.099Z,26.97
2019-01-23T04:50:53.567Z,26.87
2019-01-23T04:53:31.245Z,25.77
2019-01-23T04:56:00.642Z,26.50
2019-01-23T04:58:30.029Z,25.37
2019-01-23T05:00:59.446Z,25.77
2019-01-23T05:03:28.848Z,25.43
2019-01-23T05:05:58.273Z,25.60
2019-01-23T05:08:27.665Z,27.03
2019-01-23T05:10:57.017Z,26.17
2019-01-23T05:13:26.417Z,26.40
2019-01-23T05:15:55.899Z,25.97
2019-01-23T05:18:25.243Z,26.20
2019-01-23T05:20:54.675Z,26.17
2019-01-23T05:23:24.045Z,27.43
2019-01-23T05:25:53.481Z,27.70
2019-01-23T05:28:22.885Z,27.47
2019-01-23T05:30:52.228Z,27.17
2019-01-23T05:33:21.664Z,26.93
2019-01-23T05:35:51.088Z,28.80
2019-01-23T05:38:20.492Z,27.13
2019-01-23T05:40:49.899Z,27.33
2019-01-23T05:43:19.293Z,29.13
2019-01-23T05:45:48.606Z,28.77
2019-01-23T05:48:18.013Z,26.53
2019-01-23T05:50:48.414Z,28.23
2019-01-23T05:53:17.821Z,27.37
2019-01-23T05:55:47.141Z,27.10
2019-01-23T05:58:16.489Z,28.43
2019-01-23T06:00:45.945Z,26.50
2019-01-23T06:03:15.429Z,27.40
2019-01-23T06:06:03.841Z,27.17
2019-01-23T06:08:33.225Z,27.07
2019-01-23T06:11:02.668Z,27.43
2019-01-23T06:13:31.974Z,27.23
2019-01-23T06:16:01.404Z,27.23
2019-01-23T06:18:30.822Z,27.27
2019-01-23T06:21:00.282Z,27.07
2019-01-23T06:23:29.688Z,25.80
2019-01-23T06:25:58.994Z,26.40
2019-01-23T06:28:28.367Z,27.23
2019-01-23T06:30:57.621Z,27.37
2019-01-23T06:33:27.055Z,27.07
2019-01-23T06:35:56.431Z,28.90
2019-01-23T06:38:25.841Z,26.70
2019-01-23T06:40:55.205Z,27.20
2019-01-23T06:43:24.599Z,27.97
2019-01-23T06:45:54.017Z,25.93
2019-01-23T06:48:23.327Z,26.60
2019-01-23T06:50:52.681Z,28.00
2019-01-23T06:53:22.160Z,25.90
2019-01-23T06:55:51.540Z,25.57
2019-01-23T06:58:20.966Z,26.80
2019-01-23T07:00:50.405Z,25.70
2019-01-23T07:03:19.750Z,27.20
2019-01-23T07:05:49.272Z,26.33
2019-01-23T07:08:18.703Z,25.90
2019-01-23T07:10:48.096Z,25.40
2019-01-23T07:13:17.388Z,25.90
2019-01-23T07:15:46.814Z,27.43
2019-01-23T07:18:16.211Z,24.77
2019-01-23T07:20:45.554Z,26.60
2019-01-23T07:23:14.957Z,26.53
2019-01-23T07:25:44.342Z,25.57
2019-01-23T07:28:13.822Z,26.47
2019-01-23T07:30:43.784Z,25.93
2019-01-23T07:33:13.179Z,26.63
2019-01-23T07:35:42.617Z,26.87
2019-01-23T07:38:12.000Z,27.77
2019-01-23T07:40:41.472Z,26.03
2019-01-23T07:43:10.851Z,25.50
2019-01-23T07:45:40.291Z,27.33
2019-01-23T07:48:09.672Z,26.70
2019-01-23T07:50:39.028Z,26.10
2019-01-23T07:53:08.470Z,25.67
2019-01-23T07:55:37.901Z,26.93
2019-01-23T07:58:07.212Z,25.70
2019-01-23T08:00:36.615Z,25.47
2019-01-23T08:03:06.105Z,27.67
2019-01-23T08:05:35.524Z,26.70
2019-01-23T08:08:05.034Z,25.70
2019-01-23T08:10:34.419Z,27.10
2019-01-23T08:13:04.053Z,26.77
2019-01-23T08:15:35.510Z,26.40
2019-01-23T08:18:05.709Z,26.40
2019-01-23T08:20:35.162Z,26.70
2019-01-23T08:23:04.575Z,25.57
2019-01-23T08:25:36.274Z,26.27
2019-01-23T08:28:05.934Z,26.47
2019-01-23T08:30:39.202Z,26.07
2019-01-23T08:33:06.846Z,26.33
2019-01-23T08:35:36.288Z,26.83
2019-01-23T08:38:05.678Z,25.60
2019-01-23T08:40:35.112Z,25.70
2019-01-23T08:43:05.823Z,25.73
2019-01-23T08:45:35.268Z,26.93
2019-01-23T08:48:04.772Z,26.63
2019-01-23T08:50:42.539Z,25.43
2019-01-23T08:53:30.994Z,27.77
2019-01-23T08:56:00.451Z,27.10
2019-01-23T08:58:29.883Z,27.00
2019-01-23T09:00:59.285Z,27.30
2019-01-23T09:03:28.583Z,26.50
2019-01-23T09:05:57.943Z,27.53
2019-01-23T09:08:27.429Z,27.87
2019-01-23T09:10:56.790Z,27.27
2019-01-23T09:13:26.254Z,27.63
2019-01-23T09:15:55.643Z,26.07
2019-01-23T09:18:25.056Z,27.03
2019-01-23T09:20:54.448Z,27.83
2019-01-23T09:23:23.838Z,27.43
2019-01-23T09:25:53.351Z,29.03
2019-01-23T09:28:22.697Z,28.50
2019-01-23T09:31:31.223Z,27.83
2019-01-23T09:34:16.801Z,28.30
2019-01-23T09:37:14.320Z,27.43
2019-01-23T09:40:24.483Z,28.67
2019-01-23T09:43:33.358Z,26.23
2019-01-23T09:46:47.112Z,26.80
2019-01-23T09:49:43.143Z,26.53
2019-01-23T09:52:37.266Z,27.60
2019-01-23T09:55:09.161Z,27.97
2019-01-23T09:57:42.420Z,28.17
2019-01-23T10:00:16.523Z,27.07
2019-01-23T10:03:04.930Z,27.53
2019-01-23T10:05:34.360Z,27.87
2019-01-23T10:08:03.819Z,27.27
2019-01-23T10:10:33.330Z,26.70
2019-01-23T10:13:02.908Z,27.23
2019-01-23T10:15:42.440Z,27.57
2019-01-23T10:18:11.839Z,27.70
2019-01-23T10:20:41.340Z,26.10
2019-01-23T10:23:10.749Z,26.80
2019-01-23T10:25:40.084Z,27.53
2019-01-23T10:28:09.561Z,28.17
2019-01-23T10:30:38.955Z,27.27
2019-01-23T10:33:08.390Z,25.67
2019-01-23T10:35:38.747Z,28.17
2019-01-23T10:38:08.080Z,26.07
2019-01-23T10:40:37.508Z,27.50
2019-01-23T10:43:06.928Z,27.50
2019-01-23T10:45:36.382Z,27.53
2019-01-23T10:48:05.814Z,26.20
2019-01-23T10:50:35.273Z,27.90
2019-01-23T10:53:04.798Z,28.10
2019-01-23T10:55:34.176Z,27.67
2019-01-23T10:58:03.718Z,28.23
2019-01-23T11:00:33.492Z,27.83
2019-01-23T11:03:09.961Z,26.73
2019-01-23T11:05:37.118Z,26.53
2019-01-23T11:08:06.643Z,27.93
2019-01-23T11:10:36.100Z,26.93
2019-01-23T11:13:05.483Z,28.10
2019-01-23T11:15:34.934Z,29.43
2019-01-23T11:18:04.981Z,28.80
2019-01-23T11:20:34.405Z,28.10
2019-01-23T11:23:06.444Z,27.77
2019-01-23T11:25:37.060Z,28.03
2019-01-23T11:28:06.506Z,28.77
2019-01-23T11:30:35.960Z,29.03
2019-01-23T11:33:05.470Z,29.77
2019-01-23T11:35:34.976Z,29.17
2019-01-23T11:38:04.460Z,31.00
2019-01-23T11:40:34.084Z,29.27
2019-01-23T11:43:03.599Z,28.97
2019-01-23T11:45:33.147Z,28.50
2019-01-23T11:48:02.739Z,29.10
2019-01-23T11:50:32.204Z,29.07
2019-01-23T11:53:03.762Z,27.60
2019-01-23T11:55:33.514Z,29.77
2019-01-23T11:58:04.243Z,30.40
2019-01-23T12:00:34.953Z,30.07
2019-01-23T12:03:04.499Z,30.10
2019-01-23T12:05:34.081Z,30.30
2019-01-23T12:08:03.626Z,29.37
2019-01-23T12:10:33.126Z,28.83
2019-01-23T12:13:03.435Z,29.37
2019-01-23T12:15:32.894Z,29.60
2019-01-23T12:18:02.434Z,32.23
2019-01-23T12:20:32.015Z,32.53
2019-01-23T12:23:01.418Z,33.27
2019-01-23T12:28:31.960Z,30.67
2019-01-23T12:31:01.465Z,28.53
2019-01-23T12:33:30.932Z,29.23
2019-01-23T12:36:00.387Z,29.70
2019-01-23T12:38:29.986Z,29.23
2019-01-23T12:41:18.571Z,30.10
2019-01-23T12:43:48.099Z,29.27
2019-01-23T12:46:17.530Z,28.87
2019-01-23T12:48:47.045Z,29.17
2019-01-23T12:51:16.534Z,29.07
2019-01-23T12:53:46.008Z,29.07
2019-01-23T12:56:35.506Z,28.87
2019-01-23T12:59:05.032Z,28.33
2019-01-23T13:01:34.422Z,29.30
2019-01-23T13:04:06.214Z,29.83
2019-01-23T13:06:35.678Z,30.43
2019-01-23T13:09:36.141Z,28.30
2019-01-23T13:12:05.880Z,29.43
2019-01-23T13:14:35.302Z,31.33
2019-01-23T13:17:04.997Z,31.03
2019-01-23T13:19:34.850Z,30.13
2019-01-23T13:22:04.885Z,30.77
2019-01-23T13:24:34.391Z,30.47
2019-01-23T13:30:03.539Z,29.47
2019-01-23T13:32:33.035Z,30.43
2019-01-23T13:35:02.668Z,31.67
2019-01-23T13:37:35.115Z,32.47
2019-01-23T13:40:07.264Z,31.27
2019-01-23T13:42:39.836Z,30.63
2019-01-23T13:45:09.892Z,29.50
2019-01-23T13:47:39.418Z,29.90
2019-01-23T13:50:09.617Z,31.27
2019-01-23T13:52:39.038Z,31.23
2019-01-23T13:55:10.393Z,29.07
2019-01-23T13:57:39.963Z,30.80
2019-01-23T14:00:13.491Z,29.80
2019-01-23T14:02:42.948Z,30.73
2019-01-23T14:05:12.381Z,30.20
2019-01-23T14:07:41.765Z,28.67
2019-01-23T14:10:12.861Z,32.30
2019-01-23T14:12:42.255Z,29.50
2019-01-23T14:15:17.719Z,30.67
2019-01-23T14:17:47.147Z,30.97
2019-01-23T14:20:16.931Z,32.07
2019-01-23T14:22:46.439Z,32.23
2019-01-23T14:25:16.322Z,32.90
2019-01-23T14:27:45.760Z,31.93
2019-01-23T14:30:19.344Z,31.33
2019-01-23T14:32:48.788Z,30.00
2019-01-23T14:35:18.582Z,30.20
2019-01-23T14:37:47.940Z,32.23
2019-01-23T14:40:17.421Z,31.87
2019-01-23T14:42:47.098Z,31.83
2019-01-23T14:45:16.506Z,33.43
2019-01-23T14:47:45.986Z,30.93
2019-01-23T14:50:15.622Z,32.17
2019-01-23T14:52:45.303Z,29.80
2019-01-23T14:55:15.040Z,31.90
2019-01-23T14:57:44.647Z,31.13
2019-01-23T15:00:25.063Z,30.07
2019-01-23T15:02:54.597Z,31.40
2019-01-23T15:05:24.198Z,31.93
2019-01-23T15:07:55.532Z,32.33
2019-01-23T15:10:26.670Z,29.17
2019-01-23T15:12:56.100Z,32.17
2019-01-23T15:15:25.980Z,31.00
2019-01-23T15:17:55.517Z,31.13
2019-01-23T15:20:27.866Z,31.57
2019-01-23T15:22:57.234Z,30.37
2019-01-23T15:25:26.642Z,30.50
2019-01-23T15:27:56.060Z,30.77
2019-01-23T15:30:26.197Z,31.10
2019-01-23T15:32:55.577Z,31.27
2019-01-23T15:35:25.071Z,30.87
2019-01-23T15:37:54.536Z,29.57
2019-01-23T15:40:26.237Z,30.43
2019-01-23T15:42:57.922Z,31.17
2019-01-23T15:45:27.464Z,31.10
2019-01-23T15:47:56.877Z,30.10
2019-01-23T15:50:26.667Z,30.03
2019-01-23T15:52:56.034Z,28.27
2019-01-23T15:55:26.308Z,34.00
2019-01-23T15:57:55.678Z,29.27
2019-01-23T16:00:29.956Z,29.67
2019-01-23T16:03:00.481Z,29.70
2019-01-23T16:05:30.002Z,29.77
2019-01-23T16:07:59.345Z,29.47
2019-01-23T16:10:29.895Z,30.47
2019-01-23T16:12:59.266Z,29.30
2019-01-23T16:15:30.078Z,28.87
2019-01-23T16:17:59.471Z,28.43
2019-01-23T16:20:28.961Z,29.50
2019-01-23T16:22:58.469Z,29.83
2019-01-23T16:25:27.877Z,29.23
2019-01-23T16:27:57.309Z,29.33
2019-01-23T16:30:29.638Z,29.13
2019-01-23T16:32:59.098Z,28.60
2019-01-23T16:35:28.677Z,28.13
2019-01-23T16:37:58.205Z,27.43
2019-01-23T16:40:27.589Z,27.93
2019-01-23T16:42:57.016Z,26.03
2019-01-23T16:45:26.589Z,26.27
2019-01-23T16:47:55.992Z,26.23
2019-01-23T16:50:26.061Z,24.80
2019-01-23T16:52:55.572Z,25.23
2019-01-23T16:55:25.050Z,26.07
2019-01-23T16:57:54.612Z,25.67
2019-01-23T17:00:25.246Z,25.23
2019-01-23T17:02:55.417Z,25.43
2019-01-23T17:05:27.977Z,25.27
2019-01-23T17:07:59.945Z,25.73
2019-01-23T17:10:29.595Z,25.67
2019-01-23T17:12:59.026Z,25.00
2019-01-23T17:15:28.565Z,23.67
2019-01-23T17:17:57.970Z,25.80
2019-01-23T17:20:33.696Z,25.67
2019-01-23T17:23:03.157Z,25.13
2019-01-23T17:25:32.744Z,24.43
2019-01-23T17:28:02.171Z,24.07
2019-01-23T17:30:31.601Z,25.97
2019-01-23T17:33:03.594Z,24.57
2019-01-23T17:35:33.073Z,24.93
2019-01-23T17:38:02.532Z,24.23
2019-01-23T17:40:32.098Z,24.43
2019-01-23T17:43:01.555Z,24.90
2019-01-23T17:45:33.518Z,25.13
2019-01-23T17:48:04.380Z,24.13
2019-01-23T17:50:33.875Z,24.60
2019-01-23T17:53:03.331Z,25.13
2019-01-23T17:55:35.191Z,24.83
2019-01-23T17:58:06.245Z,24.77
2019-01-23T18:00:38.910Z,25.90
2019-01-23T18:03:08.640Z,25.73
2019-01-23T18:05:38.369Z,26.10
2019-01-23T18:08:07.896Z,25.13
2019-01-23T18:10:37.382Z,26.50
2019-01-23T18:13:06.792Z,30.50
2019-01-23T18:15:36.644Z,32.13
2019-01-23T18:18:06.733Z,27.23
2019-01-23T18:20:38.042Z,27.33
2019-01-23T18:23:07.401Z,27.93
2019-01-23T18:25:36.876Z,25.73
2019-01-23T18:28:06.476Z,29.23
2019-01-23T18:30:45.349Z,28.30
2019-01-23T18:33:16.293Z,29.93
2019-01-23T18:36:28.919Z,28.70
2019-01-23T18:39:30.792Z,31.13
2019-01-23T18:42:28.786Z,27.33
2019-01-23T18:45:10.672Z,29.33
2019-01-23T18:48:45.417Z,32.03
2019-01-23T18:51:25.744Z,25.47
2019-01-23T18:54:08.529Z,26.73
2019-01-23T18:56:38.406Z,27.33
2019-01-23T18:59:08.038Z,28.23
2019-01-23T19:01:37.460Z,26.03
2019-01-23T19:04:07.037Z,27.10
2019-01-23T19:06:37.730Z,26.03
2019-01-23T19:09:10.147Z,26.97
2019-01-23T19:11:39.817Z,28.93
2019-01-23T19:14:09.282Z,27.77
2019-01-23T19:16:39.232Z,28.83
2019-01-23T19:19:08.712Z,26.10
2019-01-23T19:21:38.506Z,26.50
2019-01-23T19:24:07.996Z,27.57
2019-01-23T19:26:37.486Z,29.47
2019-01-23T19:29:06.942Z,26.70
2019-01-23T19:31:36.500Z,26.87
2019-01-23T19:34:06.068Z,24.93
2019-01-23T19:36:35.672Z,26.80
2019-01-23T19:39:08.955Z,27.70
2019-01-23T19:41:38.388Z,27.17
2019-01-23T19:44:08.397Z,27.17
2019-01-23T19:46:37.792Z,26.60
2019-01-23T19:49:07.287Z,25.27
2019-01-23T19:51:36.689Z,27.27
2019-01-23T19:54:06.780Z,26.17
2019-01-23T19:56:36.224Z,26.13
2019-01-23T19:59:05.649Z,26.47
2019-01-23T20:01:35.119Z,26.33
2019-01-23T20:04:04.719Z,26.43
2019-01-23T20:06:34.182Z,27.77
2019-01-23T20:09:05.560Z,25.77
2019-01-23T20:11:34.966Z,27.90
2019-01-23T20:14:04.900Z,29.67
2019-01-23T20:16:34.368Z,27.17
2019-01-23T20:19:06.608Z,27.93
2019-01-23T20:21:36.118Z,27.60
2019-01-23T20:24:05.686Z,27.27
2019-01-23T20:26:35.083Z,26.10
2019-01-23T20:29:04.854Z,31.43
2019-01-23T20:31:36.584Z,26.87
2019-01-23T20:34:06.248Z,26.80
2019-01-23T20:36:35.664Z,26.17
2019-01-23T20:39:08.169Z,27.37
2019-01-23T20:41:37.595Z,27.10
2019-01-23T20:44:07.159Z,27.27
2019-01-23T20:46:36.703Z,29.53
2019-01-23T20:49:06.309Z,28.43
2019-01-23T20:51:35.761Z,29.13
2019-01-23T20:54:05.325Z,27.73
2019-01-23T20:56:34.809Z,30.70
2019-01-23T20:59:04.495Z,27.73
2019-01-23T21:01:33.936Z,28.20
2019-01-23T21:04:03.407Z,26.90
2019-01-23T21:06:32.917Z,28.17
2019-01-23T21:09:02.493Z,28.40
2019-01-23T21:11:31.952Z,28.17
2019-01-23T21:14:01.422Z,28.77
2019-01-23T21:16:30.952Z,26.67
2019-01-23T21:19:00.422Z,28.20
2019-01-23T21:21:29.922Z,28.93
2019-01-23T21:23:59.352Z,27.67
2019-01-23T21:26:28.780Z,29.67
2019-01-23T21:28:58.198Z,28.27
2019-01-23T21:31:27.631Z,27.93
2019-01-23T21:33:57.054Z,29.10
2019-01-23T21:36:26.661Z,35.93
2019-01-23T21:38:56.271Z,29.03
2019-01-23T21:41:25.731Z,28.60
2019-01-23T21:43:55.173Z,28.23
2019-01-23T21:46:24.590Z,28.27
2019-01-23T21:48:54.283Z,28.00
2019-01-23T21:51:23.752Z,27.43
2019-01-23T21:53:53.194Z,28.50
2019-01-23T21:56:22.620Z,27.67
2019-01-23T21:58:52.082Z,29.13
2019-01-23T22:01:21.446Z,29.33
2019-01-23T22:03:50.936Z,28.80
2019-01-23T22:06:20.419Z,29.57
2019-01-23T22:08:49.867Z,28.97
2019-01-23T22:11:19.284Z,28.00
2019-01-23T22:13:48.773Z,30.13
2019-01-23T22:16:18.100Z,28.77
2019-01-23T22:18:47.576Z,28.53
2019-01-23T22:21:17.049Z,28.80
2019-01-23T22:23:46.541Z,29.30
2019-01-23T22:26:15.931Z,33.23
2019-01-23T22:28:45.407Z,29.13
2019-01-23T22:31:14.897Z,29.10
2019-01-23T22:33:44.324Z,29.33
2019-01-23T22:36:13.775Z,31.20
2019-01-23T22:38:43.187Z,33.07
2019-01-23T22:41:12.621Z,53.60
2019-01-23T22:43:42.072Z,31.53
2019-01-23T22:46:11.620Z,29.33
2019-01-23T22:48:40.966Z,28.67
2019-01-23T22:51:10.399Z,29.07
2019-01-23T22:53:39.928Z,29.23
2019-01-23T22:56:09.374Z,28.37
2019-01-23T22:58:38.771Z,29.73
2019-01-23T23:01:28.967Z,30.10
2019-01-23T23:04:03.453Z,30.43
2019-01-23T23:06:30.633Z,29.83
2019-01-23T23:09:00.112Z,30.30
2019-01-23T23:11:29.595Z,31.47
2019-01-23T23:13:59.089Z,30.47
2019-01-23T23:16:28.515Z,31.77
2019-01-23T23:18:57.945Z,31.37
2019-01-23T23:21:27.397Z,29.97
2019-01-23T23:23:56.830Z,29.90
2019-01-23T23:26:26.209Z,29.60
2019-01-23T23:28:55.631Z,29.77
2019-01-23T23:31:25.085Z,30.73
2019-01-23T23:33:54.485Z,30.80
2019-01-23T23:36:23.918Z,32.30
2019-01-23T23:38:53.375Z,45.80
2019-01-23T23:41:22.832Z,31.07
2019-01-23T23:43:52.297Z,31.57
2019-01-23T23:46:21.772Z,29.27
2019-01-23T23:48:51.279Z,32.40
2019-01-23T23:51:20.787Z,32.27
2019-01-23T23:53:50.272Z,31.20
2019-01-23T23:56:19.754Z,30.60
2019-01-23T23:58:49.261Z,30.87
